createdAt,value
2019-02-26T00:00:31.382Z,28.4
2019-02-26T00:01:08.149Z,28.4
2019-02-26T00:02:08.439Z,28.4
2019-02-26T00:03:08.789Z,28.3
2019-02-26T00:03:41.914Z,28.3
2019-02-26T00:04:41.141Z,28.3
2019-02-26T00:05:36.406Z,28.2
2019-02-26T00:06:10.342Z,28.2
2019-02-26T00:07:06.156Z,28.2
2019-02-26T00:08:06.264Z,28.1
2019-02-26T00:08:40.951Z,28.1
2019-02-26T00:09:40.954Z,28.1
2019-02-26T00:10:34.444Z,28.1
2019-02-26T00:11:16.578Z,28.1
2019-02-26T00:11:59.403Z,28
2019-02-26T00:12:49.741Z,28
2019-02-26T00:13:43.863Z,27.9
2019-02-26T00:14:36.486Z,27.9
2019-02-26T00:15:19.730Z,27.9
2019-02-26T00:16:25.549Z,27.9
2019-02-26T00:16:59.473Z,27.9
2019-02-26T00:18:39.838Z,27.6
2019-02-26T00:19:29.155Z,27.5
2019-02-26T00:20:24.644Z,27.4
2019-02-26T00:21:11.858Z,27.2
2019-02-26T00:22:01.682Z,27.1
2019-02-26T00:22:50.259Z,26.9
2019-02-26T00:23:46.530Z,26.8
2019-02-26T00:24:48.214Z,26.7
2019-02-26T00:25:27.188Z,26.6
2019-02-26T00:26:23.855Z,26.5
2019-02-26T00:27:11.832Z,26.4
2019-02-26T00:28:01.736Z,26.3
2019-02-26T00:28:51.260Z,26.3
2019-02-26T00:29:37.645Z,26.2
2019-02-26T00:30:25.402Z,26.1
2019-02-26T00:31:12.974Z,26
2019-02-26T00:32:04.462Z,25.9
2019-02-26T00:32:50.913Z,25.8
2019-02-26T00:33:40.425Z,25.8
2019-02-26T00:34:42.180Z,25.7
2019-02-26T00:35:33.227Z,25.6
2019-02-26T00:36:19.887Z,25.6
2019-02-26T00:37:11.574Z,25.4
2019-02-26T00:38:01.572Z,25.4
2019-02-26T00:38:50.652Z,25.3
2019-02-26T00:39:37.955Z,25.2
2019-02-26T00:40:26.492Z,25.1
2019-02-26T00:41:13.777Z,25.6
2019-02-26T00:42:10.457Z,25.9
2019-02-26T00:43:10.067Z,26.2
2019-02-26T00:43:43.057Z,26.4
2019-02-26T00:44:42.729Z,26.4
2019-02-26T00:45:41.594Z,26.6
2019-02-26T00:46:16.317Z,26.6
2019-02-26T00:47:14.216Z,26.6
2019-02-26T00:47:53.724Z,26.7
2019-02-26T00:48:49.057Z,26.7
2019-02-26T00:49:35.913Z,26.8
2019-02-26T00:50:23.274Z,26.7
2019-02-26T00:51:11.803Z,26.8
2019-02-26T00:52:03.829Z,26.8
2019-02-26T00:53:04.494Z,26.8
2019-02-26T00:53:41.682Z,26.8
2019-02-26T00:54:42.877Z,26.7
2019-02-26T00:55:40.164Z,26.6
2019-02-26T00:56:17.024Z,26.4
2019-02-26T00:57:19.161Z,26.3
2019-02-26T00:57:51.759Z,26.2
2019-02-26T00:58:55.601Z,26.1
2019-02-26T00:59:32.419Z,26
2019-02-26T01:00:26.740Z,25.9
2019-02-26T01:01:28.021Z,25.8
2019-02-26T01:02:06.331Z,25.7
2019-02-26T01:02:52.101Z,25.6
2019-02-26T01:03:54.286Z,25.6
2019-02-26T01:04:33.308Z,25.4
2019-02-26T01:05:22.843Z,25.4
2019-02-26T01:06:15.684Z,25.3
2019-02-26T01:07:12.808Z,25.3
2019-02-26T01:08:00.328Z,25.2
2019-02-26T01:08:52.091Z,25.1
2019-02-26T01:09:39.218Z,25
2019-02-26T01:10:29.116Z,24.9
2019-02-26T01:11:13.698Z,24.9
2019-02-26T01:12:02.256Z,24.8
2019-02-26T01:12:52.805Z,24.8
2019-02-26T01:13:43.165Z,24.7
2019-02-26T01:14:32.707Z,24.6
2019-02-26T01:15:22.973Z,24.5
2019-02-26T01:16:12.763Z,24.5
2019-02-26T01:17:03.613Z,24.4
2019-02-26T01:17:56.662Z,24.3
2019-02-26T01:18:54.700Z,24.3
2019-02-26T01:19:44.565Z,24.2
2019-02-26T01:20:36.616Z,24.1
2019-02-26T01:21:13.374Z,24.1
2019-02-26T01:22:03.690Z,24
2019-02-26T01:22:53.240Z,23.9
2019-02-26T01:23:43.259Z,23.9
2019-02-26T01:24:38.310Z,23.8
2019-02-26T01:25:29.067Z,24.3
2019-02-26T01:26:17.470Z,24.6
2019-02-26T01:27:04.305Z,24.9
2019-02-26T01:28:05.935Z,25.1
2019-02-26T01:29:04.994Z,25.3
2019-02-26T01:29:38.877Z,25.4
2019-02-26T01:30:41.532Z,25.5
2019-02-26T01:31:14.049Z,25.5
2019-02-26T01:32:20.466Z,25.6
2019-02-26T01:32:57.428Z,25.6
2019-02-26T01:33:48.515Z,25.6
2019-02-26T01:34:33.678Z,25.7
2019-02-26T01:35:32.614Z,25.6
2019-02-26T01:36:26.929Z,25.5
2019-02-26T01:37:16.297Z,25.4
2019-02-26T01:38:05.741Z,25.3
2019-02-26T01:38:58.002Z,25.2
2019-02-26T01:39:52.147Z,25.1
2019-02-26T01:40:31.524Z,25
2019-02-26T01:41:31.389Z,24.9
2019-02-26T01:42:05.514Z,24.8
2019-02-26T01:43:10.609Z,24.8
2019-02-26T01:43:44.902Z,24.7
2019-02-26T01:44:49.226Z,24.7
2019-02-26T01:45:37.320Z,24.6
2019-02-26T01:46:24.599Z,24.5
2019-02-26T01:47:11.351Z,24.4
2019-02-26T01:47:58.998Z,24.4
2019-02-26T01:48:47.521Z,24.3
2019-02-26T01:49:36.351Z,24.3
2019-02-26T01:50:30.603Z,24.2
2019-02-26T01:51:19.340Z,24.1
2019-02-26T01:52:17.272Z,24.1
2019-02-26T01:53:06.674Z,24
2019-02-26T01:53:58.534Z,23.9
2019-02-26T01:54:45.641Z,23.9
2019-02-26T01:55:33.616Z,23.8
2019-02-26T01:56:20.776Z,23.8
2019-02-26T01:57:10.496Z,23.7
2019-02-26T01:58:00.771Z,23.6
2019-02-26T01:58:57.870Z,23.6
2019-02-26T01:59:41.053Z,23.5
2019-02-26T02:00:30.911Z,23.4
2019-02-26T02:01:31.530Z,23.4
2019-02-26T02:02:07.046Z,23.3
2019-02-26T02:02:57.514Z,23.3
2019-02-26T02:03:59.735Z,23.3
2019-02-26T02:04:48.465Z,23.2
2019-02-26T02:05:37.234Z,23.1
2019-02-26T02:06:24.375Z,23.1
2019-02-26T02:07:12.150Z,23
2019-02-26T02:08:01.956Z,23
2019-02-26T02:09:00.270Z,22.9
2019-02-26T02:09:37.510Z,22.9
2019-02-26T02:10:26.932Z,22.9
2019-02-26T02:11:17.268Z,22.8
2019-02-26T02:12:17.165Z,22.8
2019-02-26T02:13:15.767Z,22.7
2019-02-26T02:13:50.470Z,22.6
2019-02-26T02:14:38.042Z,22.6
2019-02-26T02:15:30.175Z,22.6
2019-02-26T02:16:16.780Z,22.6
2019-02-26T02:17:19.780Z,22.5
2019-02-26T02:18:08.722Z,23
2019-02-26T02:19:04.197Z,23.4
2019-02-26T02:19:40.356Z,23.8
2019-02-26T02:20:28.807Z,23.9
2019-02-26T02:21:17.647Z,24.1
2019-02-26T02:22:09.905Z,24.3
2019-02-26T02:23:10.042Z,24.4
2019-02-26T02:23:57.610Z,24.4
2019-02-26T02:24:57.677Z,24.4
2019-02-26T02:25:47.060Z,24.5
2019-02-26T02:26:21.977Z,24.5
2019-02-26T02:27:08.617Z,24.5
2019-02-26T02:28:09.582Z,24.4
2019-02-26T02:28:49.277Z,24.3
2019-02-26T02:29:47.993Z,24.2
2019-02-26T02:30:44.777Z,24.1
2019-02-26T02:31:18.408Z,24.1
2019-02-26T02:32:14.259Z,23.9
2019-02-26T02:33:08.781Z,23.9
2019-02-26T02:33:48.527Z,23.8
2019-02-26T02:34:48.873Z,23.8
2019-02-26T02:35:28.394Z,23.8
2019-02-26T02:36:32.677Z,23.6
2019-02-26T02:37:09.372Z,23.6
2019-02-26T02:38:11.004Z,23.6
2019-02-26T02:38:49.187Z,23.4
2019-02-26T02:39:38.644Z,23.4
2019-02-26T02:40:29.937Z,23.4
2019-02-26T02:41:19.103Z,23.3
2019-02-26T02:42:22.919Z,23.3
2019-02-26T02:43:15.931Z,23.2
2019-02-26T02:43:49.779Z,23.1
2019-02-26T02:44:53.646Z,23.1
2019-02-26T02:45:28.285Z,23.1
2019-02-26T02:46:19.442Z,23.1
2019-02-26T02:47:17.789Z,22.9
2019-02-26T02:48:18.803Z,22.9
2019-02-26T02:48:49.922Z,22.9
2019-02-26T02:49:50.435Z,22.8
2019-02-26T02:50:30.500Z,22.8
2019-02-26T02:51:20.103Z,22.8
2019-02-26T02:52:17.860Z,22.7
2019-02-26T02:53:10.245Z,22.6
2019-02-26T02:54:04.266Z,22.6
2019-02-26T02:54:53.685Z,22.6
2019-02-26T02:55:30.356Z,22.5
2019-02-26T02:56:24.420Z,22.4
2019-02-26T02:57:16.423Z,22.4
2019-02-26T02:58:06.375Z,22.4
2019-02-26T02:58:57.850Z,22.4
2019-02-26T02:59:47.963Z,22.3
2019-02-26T03:00:40.380Z,22.3
2019-02-26T03:01:34.081Z,22.2
2019-02-26T03:02:25.463Z,22.2
2019-02-26T03:03:04.202Z,22.2
2019-02-26T03:04:06.293Z,22.1
2019-02-26T03:04:41.078Z,22.1
2019-02-26T03:08:03.447Z,21.9
2019-02-26T03:08:59.382Z,21.9
2019-02-26T03:09:51.645Z,21.9
2019-02-26T03:10:49.868Z,21.9
2019-02-26T03:11:18.263Z,21.8
2019-02-26T03:12:08.344Z,21.8
2019-02-26T03:13:08.752Z,21.8
2019-02-26T03:13:59.418Z,21.8
2019-02-26T03:14:50.416Z,21.8
2019-02-26T03:15:41.855Z,21.7
2019-02-26T03:16:32.595Z,21.7
2019-02-26T03:17:23.892Z,21.7
2019-02-26T03:17:59.825Z,21.6
2019-02-26T03:18:48.872Z,21.7
2019-02-26T03:19:49.466Z,21.6
2019-02-26T03:20:45.792Z,21.6
2019-02-26T03:21:34.157Z,21.6
2019-02-26T03:22:24.277Z,21.6
2019-02-26T03:22:59.940Z,21.6
2019-02-26T03:23:53.008Z,21.6
2019-02-26T03:24:42.804Z,21.6
2019-02-26T03:25:36.019Z,21.6
2019-02-26T03:26:33.097Z,21.5
2019-02-26T03:27:10.148Z,21.5
2019-02-26T03:28:00.219Z,21.5
2019-02-26T03:29:00.039Z,21.5
2019-02-26T03:29:40.357Z,21.6
2019-02-26T03:30:50.984Z,22.1
2019-02-26T03:31:20.549Z,22.6
2019-02-26T03:32:10.856Z,22.8
2019-02-26T03:33:11.707Z,22.9
2019-02-26T03:33:50.542Z,23.1
2019-02-26T03:34:40.619Z,23.2
2019-02-26T03:35:31.124Z,23.2
2019-02-26T03:36:25.470Z,23.3
2019-02-26T03:37:17.224Z,23.4
2019-02-26T03:38:10.021Z,23.5
2019-02-26T03:39:08.298Z,23.6
2019-02-26T03:39:40.425Z,23.8
2019-02-26T03:40:41.962Z,23.9
2019-02-26T03:41:35.897Z,24.1
2019-02-26T03:42:23.876Z,24.3
2019-02-26T03:43:12.847Z,24.4
2019-02-26T03:43:51.010Z,24.4
2019-02-26T03:44:40.868Z,24.6
2019-02-26T03:45:32.395Z,24.6
2019-02-26T03:46:21.303Z,24.7
2019-02-26T03:47:10.538Z,24.8
2019-02-26T03:48:04.672Z,24.9
2019-02-26T03:48:50.574Z,24.9
2019-02-26T03:49:45.520Z,25
2019-02-26T03:50:33.582Z,25.1
2019-02-26T03:51:24.857Z,25.1
2019-02-26T03:52:15.994Z,25.2
2019-02-26T03:53:01.216Z,25.3
2019-02-26T03:53:51.187Z,25.4
2019-02-26T03:54:56.080Z,25.4
2019-02-26T03:55:45.454Z,25.6
2019-02-26T03:56:27.446Z,25.6
2019-02-26T03:57:27.899Z,25.7
2019-02-26T03:58:08.978Z,25.8
2019-02-26T03:59:14.317Z,25.8
2019-02-26T03:59:41.804Z,25.9
2019-02-26T04:00:48.212Z,25.9
2019-02-26T04:01:28.937Z,25.9
2019-02-26T04:02:27.927Z,25.9
2019-02-26T04:03:14.112Z,26
2019-02-26T04:03:50.712Z,26
2019-02-26T04:04:43.018Z,26.1
2019-02-26T04:05:32.455Z,26.1
2019-02-26T04:06:21.962Z,26.1
2019-02-26T04:07:16.976Z,26.2
2019-02-26T04:08:11.023Z,26.3
2019-02-26T04:09:02.402Z,26.3
2019-02-26T04:10:03.622Z,26.4
2019-02-26T04:10:33.116Z,26.4
2019-02-26T04:11:33.795Z,26.4
2019-02-26T04:12:26.092Z,26.6
2019-02-26T04:13:05.626Z,26.6
2019-02-26T04:14:02.669Z,26.6
2019-02-26T04:14:43.429Z,26.6
2019-02-26T04:15:43.619Z,26.7
2019-02-26T04:16:22.643Z,26.7
2019-02-26T04:17:15.906Z,26.7
2019-02-26T04:18:03.621Z,26.8
2019-02-26T04:18:58.194Z,26.8
2019-02-26T04:19:48.034Z,26.9
2019-02-26T04:20:35.672Z,26.9
2019-02-26T04:21:27.770Z,26.9
2019-02-26T04:22:29.633Z,27
2019-02-26T04:23:03.940Z,27.1
2019-02-26T04:23:53.037Z,27.1
2019-02-26T04:24:44.079Z,27.1
2019-02-26T04:25:42.456Z,27.2
2019-02-26T04:26:39.780Z,27.3
2019-02-26T04:27:14.268Z,27.3
2019-02-26T04:28:15.943Z,27.3
2019-02-26T04:28:57.196Z,27.3
2019-02-26T04:29:55.684Z,27.3
2019-02-26T04:30:56.314Z,27.4
2019-02-26T04:31:24.608Z,27.4
2019-02-26T04:32:28.119Z,27.4
2019-02-26T04:33:17.538Z,27.4
2019-02-26T04:34:10.328Z,27.5
2019-02-26T04:34:44.486Z,27.6
2019-02-26T04:35:34.824Z,27.6
2019-02-26T04:36:29.748Z,27.6
2019-02-26T04:37:19.273Z,27.6
2019-02-26T04:38:12.832Z,27.7
2019-02-26T04:39:01.815Z,27.7
2019-02-26T04:39:54.222Z,27.8
2019-02-26T04:40:46.834Z,27.8
2019-02-26T04:43:18.527Z,27.9
2019-02-26T04:44:10.639Z,27.9
2019-02-26T04:45:04.335Z,27.9
2019-02-26T04:45:35.495Z,28
2019-02-26T04:46:40.307Z,28
2019-02-26T04:47:15.437Z,28.1
2019-02-26T04:48:07.577Z,28.1
2019-02-26T04:48:55.449Z,28.1
2019-02-26T04:49:49.924Z,28.1
2019-02-26T04:50:49.924Z,28.1
2019-02-26T04:51:26.232Z,28.1
2019-02-26T04:52:24.592Z,28.2
2019-02-26T04:53:17.307Z,28.2
2019-02-26T04:54:07.201Z,28.2
2019-02-26T04:54:46.912Z,28.3
2019-02-26T04:55:50.334Z,28.3
2019-02-26T04:56:25.522Z,28.3
2019-02-26T04:57:16.081Z,28.3
2019-02-26T04:58:05.964Z,28.3
2019-02-26T04:58:56.200Z,28.4
2019-02-26T04:59:50.712Z,28.4
2019-02-26T05:00:45.269Z,28.4
2019-02-26T05:01:26.086Z,28.4
2019-02-26T05:02:16.178Z,28.4
2019-02-26T05:03:22.546Z,28.4
2019-02-26T05:03:55.991Z,28.4
2019-02-26T05:04:49.291Z,28.5
2019-02-26T05:05:43.694Z,28.5
2019-02-26T05:06:26.478Z,28.5
2019-02-26T05:07:25.769Z,28.5
2019-02-26T05:08:20.817Z,28.5
2019-02-26T05:09:12.445Z,28.5
2019-02-26T05:09:59.304Z,28.5
2019-02-26T05:10:40.848Z,28.5
2019-02-26T05:11:46.991Z,28.5
2019-02-26T05:12:17.113Z,28.6
2019-02-26T05:13:15.746Z,28.6
2019-02-26T05:13:57.249Z,28.6
2019-02-26T05:14:47.295Z,28.6
2019-02-26T05:15:43.156Z,28.6
2019-02-26T05:16:44.468Z,28.6
2019-02-26T05:17:21.780Z,28.7
2019-02-26T05:18:07.309Z,28.8
2019-02-26T05:19:04.465Z,28.8
2019-02-26T05:19:57.849Z,28.8
2019-02-26T05:20:53.908Z,28.8
2019-02-26T05:21:41.329Z,28.9
2019-02-26T05:22:24.306Z,28.9
2019-02-26T05:23:12.227Z,28.9
2019-02-26T05:24:07.850Z,28.9
2019-02-26T05:24:59.149Z,28.9
2019-02-26T05:25:50.133Z,28.9
2019-02-26T05:26:31.144Z,29
2019-02-26T05:27:31.109Z,29
2019-02-26T05:28:22.320Z,29.1
2019-02-26T05:28:58.855Z,29.1
2019-02-26T05:30:00.792Z,29.1
2019-02-26T05:30:52.023Z,29.2
2019-02-26T05:31:37.731Z,29.2
2019-02-26T05:32:18.465Z,29.3
2019-02-26T05:33:12.896Z,29.3
2019-02-26T05:34:06.662Z,29.3
2019-02-26T05:34:56.877Z,29.4
2019-02-26T05:35:52.942Z,29.4
2019-02-26T05:36:47.341Z,29.4
2019-02-26T05:37:21.400Z,29.4
2019-02-26T05:38:16.298Z,29.4
2019-02-26T05:39:07.891Z,29.4
2019-02-26T05:40:00.485Z,29.4
2019-02-26T05:40:59.548Z,29.4
2019-02-26T05:41:28.539Z,29.4
2019-02-26T05:42:18.911Z,29.4
2019-02-26T05:43:13.084Z,29.4
2019-02-26T05:44:15.772Z,29.4
2019-02-26T05:44:53.533Z,29.4
2019-02-26T05:45:42.259Z,29.5
2019-02-26T05:46:35.580Z,29.5
2019-02-26T05:47:31.815Z,29.6
2019-02-26T05:48:09.317Z,29.6
2019-02-26T05:48:59.550Z,29.6
2019-02-26T05:49:53.039Z,29.6
2019-02-26T05:50:51.254Z,29.6
2019-02-26T05:51:43.457Z,29.6
2019-02-26T05:52:29.958Z,29.6
2019-02-26T05:53:19.650Z,29.7
2019-02-26T05:54:24.787Z,29.8
2019-02-26T05:54:49.397Z,29.8
2019-02-26T05:55:52.953Z,29.8
2019-02-26T05:56:30.466Z,29.8
2019-02-26T05:57:39.797Z,29.8
2019-02-26T05:58:24.998Z,29.8
2019-02-26T05:59:22.690Z,29.8
2019-02-26T05:59:50.647Z,29.8
2019-02-26T06:00:40.717Z,29.8
2019-02-26T06:01:34.737Z,29.9
2019-02-26T06:02:30.957Z,29.9
2019-02-26T06:03:24.694Z,29.9
2019-02-26T06:06:06.755Z,30
2019-02-26T06:07:04.567Z,30
2019-02-26T06:07:45.568Z,30
2019-02-26T06:08:46.999Z,30
2019-02-26T06:09:34.127Z,30
2019-02-26T06:10:08.484Z,30.1
2019-02-26T06:10:58.810Z,30.1
2019-02-26T06:11:57.006Z,30.1
2019-02-26T06:12:52.576Z,30.1
2019-02-26T06:13:44.128Z,30.1
2019-02-26T06:14:20.291Z,30.1
2019-02-26T06:15:14.575Z,30.1
2019-02-26T06:16:13.018Z,30.1
2019-02-26T06:17:00.972Z,30.1
2019-02-26T06:17:59.891Z,30.1
2019-02-26T06:18:28.814Z,30.2
2019-02-26T06:19:24.068Z,30.3
2019-02-26T06:20:17.474Z,30.3
2019-02-26T06:21:07.353Z,30.3
2019-02-26T06:22:01.936Z,30.2
2019-02-26T06:22:42.363Z,30.3
2019-02-26T06:23:47.078Z,30.3
2019-02-26T06:24:39.256Z,30.3
2019-02-26T06:25:31.207Z,30.3
2019-02-26T06:26:23.143Z,30.4
2019-02-26T06:26:53.015Z,30.4
2019-02-26T06:27:43.436Z,30.4
2019-02-26T06:28:53.259Z,30.4
2019-02-26T06:29:41.731Z,30.4
2019-02-26T06:30:19.466Z,30.4
2019-02-26T06:31:04.153Z,30.4
2019-02-26T06:31:56.445Z,30.4
2019-02-26T06:32:51.660Z,30.4
2019-02-26T06:33:55.076Z,30.5
2019-02-26T06:34:28.808Z,30.5
2019-02-26T06:35:25.313Z,30.6
2019-02-26T06:36:12.223Z,30.5
2019-02-26T06:36:59.790Z,30.5
2019-02-26T06:37:46.293Z,30.6
2019-02-26T06:38:40.740Z,30.5
2019-02-26T06:39:40.823Z,30.6
2019-02-26T06:40:14.392Z,30.6
2019-02-26T06:41:03.982Z,30.6
2019-02-26T06:41:57.717Z,30.6
2019-02-26T06:42:47.462Z,30.6
2019-02-26T06:43:57.855Z,30.6
2019-02-26T06:44:24.985Z,30.6
2019-02-26T06:45:23.222Z,30.6
2019-02-26T06:46:18.537Z,30.7
2019-02-26T06:46:54.394Z,30.7
2019-02-26T06:47:51.266Z,30.7
2019-02-26T06:48:38.750Z,30.8
2019-02-26T06:49:34.859Z,30.8
2019-02-26T06:50:24.702Z,30.8
2019-02-26T06:51:13.424Z,30.8
2019-02-26T06:52:00.257Z,30.8
2019-02-26T06:52:55.749Z,30.8
2019-02-26T06:53:35.339Z,30.8
2019-02-26T06:54:37.676Z,30.8
2019-02-26T06:55:15.749Z,30.8
2019-02-26T06:56:07.687Z,30.8
2019-02-26T06:57:00.084Z,30.8
2019-02-26T06:58:00.412Z,30.9
2019-02-26T06:58:47.255Z,30.9
2019-02-26T06:59:36.771Z,30.9
2019-02-26T07:00:24.323Z,30.9
2019-02-26T07:01:07.140Z,30.8
2019-02-26T07:01:59.354Z,30.8
2019-02-26T07:02:50.506Z,30.8
2019-02-26T07:03:35.850Z,30.8
2019-02-26T07:06:04.806Z,30.6
2019-02-26T07:06:47.431Z,30.6
2019-02-26T07:07:39.045Z,30.5
2019-02-26T07:08:37.263Z,30.4
2019-02-26T07:09:27.344Z,30.4
2019-02-26T07:10:08.442Z,30.4
2019-02-26T07:10:59.308Z,30.3
2019-02-26T07:11:49.013Z,30.3
2019-02-26T07:12:51.593Z,30.3
2019-02-26T07:13:28.671Z,30.2
2019-02-26T07:14:18.930Z,30.1
2019-02-26T07:15:13.588Z,30.1
2019-02-26T07:15:59.316Z,30.1
2019-02-26T07:16:48.860Z,29.9
2019-02-26T07:17:51.712Z,29.8
2019-02-26T07:18:29.490Z,29.5
2019-02-26T07:19:23.436Z,29.3
2019-02-26T07:20:10.783Z,29.2
2019-02-26T07:21:06.880Z,29.1
2019-02-26T07:21:58.436Z,28.9
2019-02-26T07:22:52.389Z,28.7
2019-02-26T07:23:42.483Z,28.6
2019-02-26T07:24:31.857Z,28.4
2019-02-26T07:25:22.796Z,28.3
2019-02-26T07:26:00.258Z,28.2
2019-02-26T07:26:55.615Z,28.1
2019-02-26T07:27:45.120Z,28
2019-02-26T07:28:33.922Z,27.9
2019-02-26T07:30:10.603Z,27.9
2019-02-26T07:31:09.771Z,27.9
2019-02-26T07:32:52.777Z,27.8
2019-02-26T07:33:43.032Z,27.6
2019-02-26T07:34:32.262Z,27.6
2019-02-26T07:35:22.747Z,27.4
2019-02-26T07:36:10.529Z,27.4
2019-02-26T07:36:58.632Z,27.3
2019-02-26T07:37:47.177Z,27.3
2019-02-26T07:38:57.632Z,27.1
2019-02-26T07:39:29.407Z,27
2019-02-26T07:40:24.275Z,27.4
2019-02-26T07:41:11.897Z,27.6
2019-02-26T07:42:00.592Z,27.7
2019-02-26T07:43:30.891Z,27.9
2019-02-26T07:44:34.557Z,27.9
2019-02-26T07:45:36.574Z,27.9
2019-02-26T07:46:01.617Z,27.7
2019-02-26T07:46:52.351Z,27.6
2019-02-26T07:47:48.386Z,27.5
2019-02-26T07:48:40.199Z,27.3
2019-02-26T07:49:23.669Z,27.2
2019-02-26T07:50:23.344Z,27.1
2019-02-26T07:51:01.450Z,27
2019-02-26T07:51:51.424Z,27
2019-02-26T07:52:41.741Z,26.9
2019-02-26T07:53:31.834Z,26.8
2019-02-26T07:54:21.854Z,26.8
2019-02-26T07:55:22.709Z,26.9
2019-02-26T07:56:14.023Z,26.9
2019-02-26T07:57:04.691Z,26.8
2019-02-26T07:57:54.934Z,26.8
2019-02-26T07:58:44.719Z,26.7
2019-02-26T07:59:52.226Z,26.6
2019-02-26T08:00:12.011Z,26.5
2019-02-26T08:01:02.192Z,26.5
2019-02-26T08:01:56.933Z,26.4
2019-02-26T08:02:44.721Z,26.4
2019-02-26T08:03:36.429Z,26.3
2019-02-26T08:04:24.938Z,26.3
2019-02-26T08:05:12.868Z,26.6
2019-02-26T08:06:17.245Z,26.8
2019-02-26T08:07:04.820Z,26.9
2019-02-26T08:07:48.533Z,27
2019-02-26T08:08:32.860Z,27
2019-02-26T08:09:29.995Z,27.1
2019-02-26T08:10:25.206Z,26.9
2019-02-26T08:11:02.750Z,26.8
2019-02-26T08:11:55.540Z,26.8
2019-02-26T08:12:49.530Z,26.6
2019-02-26T08:13:42.717Z,26.5
2019-02-26T08:14:31.160Z,26.4
2019-02-26T08:15:21.602Z,26.4
2019-02-26T08:16:11.555Z,26.3
2019-02-26T08:17:11.345Z,26.3
2019-02-26T08:18:02.928Z,26.2
2019-02-26T08:18:33.507Z,26.3
2019-02-26T08:19:23.530Z,26.3
2019-02-26T08:20:20.913Z,26.2
2019-02-26T08:21:11.567Z,26.1
2019-02-26T08:22:03.165Z,26.1
2019-02-26T08:22:43.537Z,26
2019-02-26T08:23:33.942Z,26
2019-02-26T08:24:31.122Z,25.9
2019-02-26T08:25:14.242Z,25.8
2019-02-26T08:26:09.297Z,25.8
2019-02-26T08:26:56.864Z,25.8
2019-02-26T08:27:45.455Z,25.8
2019-02-26T08:28:34.177Z,26.1
2019-02-26T08:29:36.945Z,26.1
2019-02-26T08:30:28.612Z,26.3
2019-02-26T08:31:11.191Z,26.3
2019-02-26T08:32:07.135Z,26.4
2019-02-26T08:33:08.207Z,26.4
2019-02-26T08:33:34.664Z,26.3
2019-02-26T08:34:24.846Z,26.2
2019-02-26T08:35:19.567Z,26.1
2019-02-26T08:36:04.687Z,26
2019-02-26T08:36:54.706Z,25.9
2019-02-26T08:37:44.851Z,25.8
2019-02-26T08:38:37.636Z,25.8
2019-02-26T08:39:24.349Z,25.7
2019-02-26T08:40:17.869Z,25.6
2019-02-26T08:41:05.042Z,25.6
2019-02-26T08:41:54.791Z,25.6
2019-02-26T08:42:45.132Z,25.6
2019-02-26T08:43:35.251Z,25.6
2019-02-26T08:44:24.341Z,25.6
2019-02-26T08:45:31.522Z,25.5
2019-02-26T08:46:06.727Z,25.4
2019-02-26T08:46:56.801Z,25.4
2019-02-26T08:47:44.442Z,25.4
2019-02-26T08:48:35.769Z,25.3
2019-02-26T08:49:29.101Z,25.3
2019-02-26T08:50:21.322Z,25.3
2019-02-26T08:51:26.398Z,25.3
2019-02-26T08:51:56.041Z,25.5
2019-02-26T08:53:00.254Z,25.6
2019-02-26T08:53:38.631Z,25.7
2019-02-26T08:54:40.975Z,25.7
2019-02-26T08:55:29.861Z,25.8
2019-02-26T08:56:12.488Z,25.7
2019-02-26T08:56:56.378Z,25.6
2019-02-26T08:57:46.129Z,25.5
2019-02-26T08:58:35.713Z,25.4
2019-02-26T08:59:26.891Z,25.4
2019-02-26T09:00:16.375Z,25.3
2019-02-26T09:01:06.361Z,25.3
2019-02-26T09:01:56.113Z,25.2
2019-02-26T09:03:02.283Z,25.2
2019-02-26T09:03:50.678Z,25.1
2019-02-26T09:04:30.870Z,25.1
2019-02-26T09:05:19.327Z,25.1
2019-02-26T09:06:22.611Z,25.1
2019-02-26T09:07:07.912Z,25.1
2019-02-26T09:07:56.590Z,25
2019-02-26T09:08:48.415Z,25.1
2019-02-26T09:09:38.720Z,25
2019-02-26T09:10:28.635Z,25
2019-02-26T09:11:19.617Z,25
2019-02-26T09:12:08.295Z,25
2019-02-26T09:12:58.290Z,24.9
2019-02-26T09:13:50.129Z,25.1
2019-02-26T09:14:27.724Z,25.1
2019-02-26T09:15:19.723Z,25.2
2019-02-26T09:16:14.127Z,25.3
2019-02-26T09:17:10.003Z,25.3
2019-02-26T09:17:49.576Z,25.3
2019-02-26T09:18:47.010Z,25.2
2019-02-26T09:19:42.527Z,25.1
2019-02-26T09:20:22.030Z,24.9
2019-02-26T09:21:22.923Z,24.9
2019-02-26T09:22:01.664Z,24.8
2019-02-26T09:23:06.604Z,24.8
2019-02-26T09:23:39.989Z,24.8
2019-02-26T09:24:27.987Z,24.8
2019-02-26T09:25:17.802Z,24.8
2019-02-26T09:26:13.749Z,24.7
2019-02-26T09:27:10.598Z,24.7
2019-02-26T09:27:50.259Z,24.7
2019-02-26T09:28:39.596Z,24.7
2019-02-26T09:29:29.536Z,24.7
2019-02-26T09:30:22.958Z,24.7
2019-02-26T09:31:19.034Z,24.7
2019-02-26T09:31:58.443Z,24.7
2019-02-26T09:32:53.993Z,24.7
2019-02-26T09:33:51.344Z,24.7
2019-02-26T09:34:44.838Z,24.7
2019-02-26T09:35:35.849Z,24.8
2019-02-26T09:36:29.371Z,24.8
2019-02-26T09:37:13.089Z,24.8
2019-02-26T09:38:06.043Z,24.8
2019-02-26T09:38:48.981Z,24.8
2019-02-26T09:39:40.971Z,24.8
2019-02-26T09:40:37.215Z,24.8
2019-02-26T09:41:11.760Z,24.6
2019-02-26T09:42:11.610Z,24.6
2019-02-26T09:43:07.427Z,24.5
2019-02-26T09:43:51.418Z,24.4
2019-02-26T09:44:41.725Z,24.4
2019-02-26T09:45:34.008Z,24.3
2019-02-26T09:46:24.905Z,24.4
2019-02-26T09:47:11.820Z,24.3
2019-02-26T09:48:05.090Z,24.3
2019-02-26T09:48:51.695Z,24.3
2019-02-26T09:49:40.880Z,24.3
2019-02-26T09:50:29.227Z,24.3
2019-02-26T09:51:21.660Z,24.3
2019-02-26T09:52:11.992Z,24.3
2019-02-26T09:53:03.415Z,24.4
2019-02-26T09:53:40.173Z,24.4
2019-02-26T09:54:30.388Z,24.4
2019-02-26T09:55:20.315Z,24.4
2019-02-26T09:56:10.062Z,24.4
2019-02-26T09:57:00.107Z,24.4
2019-02-26T09:57:49.187Z,24.4
2019-02-26T09:58:53.942Z,24.4
2019-02-26T09:59:42.359Z,24.4
2019-02-26T10:00:35.167Z,24.4
2019-02-26T10:01:21.757Z,24.4
2019-02-26T10:02:11.357Z,24.3
2019-02-26T10:02:58.040Z,24.3
2019-02-26T10:03:47.842Z,24.2
2019-02-26T10:04:35.523Z,24.1
2019-02-26T10:06:58.030Z,24.1
2019-02-26T10:07:47.525Z,24
2019-02-26T10:08:37.346Z,24
2019-02-26T10:09:28.252Z,24
2019-02-26T10:10:20.753Z,24
2019-02-26T10:11:11.434Z,24.1
2019-02-26T10:11:59.085Z,24.1
2019-02-26T10:12:48.409Z,24.1
2019-02-26T10:13:48.512Z,24.1
2019-02-26T10:14:41.089Z,24.1
2019-02-26T10:15:17.723Z,24.1
2019-02-26T10:16:15.276Z,24.1
2019-02-26T10:17:03.282Z,24.2
2019-02-26T10:17:51.494Z,24.2
2019-02-26T10:18:40.058Z,24.1
2019-02-26T10:19:28.338Z,24.1
2019-02-26T10:20:33.218Z,24.1
2019-02-26T10:21:23.828Z,24.1
2019-02-26T10:22:16.236Z,24.1
2019-02-26T10:22:49.826Z,24.1
2019-02-26T10:23:39.505Z,24.1
2019-02-26T10:24:45.373Z,24
2019-02-26T10:25:39.508Z,23.9
2019-02-26T10:26:17.292Z,23.8
2019-02-26T10:27:19.371Z,23.8
2019-02-26T10:27:54.178Z,23.8
2019-02-26T10:29:12.022Z,23.8
2019-02-26T10:29:29.736Z,23.8
2019-02-26T10:30:23.543Z,23.8
2019-02-26T10:31:16.638Z,23.8
2019-02-26T10:32:03.295Z,23.8
2019-02-26T10:32:54.230Z,23.8
2019-02-26T10:33:55.747Z,23.8
2019-02-26T10:34:36.940Z,23.9
2019-02-26T10:35:53.485Z,23.8
2019-02-26T10:36:23.033Z,23.9
2019-02-26T10:37:00.843Z,23.9
2019-02-26T10:37:51.428Z,23.9
2019-02-26T10:38:45.539Z,23.9
2019-02-26T10:39:37.008Z,23.9
2019-02-26T10:41:01.780Z,23.9
2019-02-26T10:41:14.443Z,23.8
2019-02-26T10:42:09.540Z,23.8
2019-02-26T10:42:54.287Z,23.9
2019-02-26T10:43:47.887Z,23.8
2019-02-26T10:44:35.625Z,23.8
2019-02-26T10:45:23.769Z,23.8
2019-02-26T10:46:14.620Z,23.7
2019-02-26T10:47:16.186Z,23.6
2019-02-26T10:48:07.292Z,23.6
2019-02-26T10:48:56.540Z,23.5
2019-02-26T10:49:36.101Z,23.4
2019-02-26T10:50:53.604Z,23.4
2019-02-26T10:51:26.913Z,23.4
2019-02-26T10:52:05.906Z,23.4
2019-02-26T10:53:25.269Z,23.4
2019-02-26T10:53:45.907Z,23.4
2019-02-26T10:54:52.173Z,23.5
2019-02-26T10:55:47.772Z,23.5
2019-02-26T10:56:15.257Z,23.6
2019-02-26T10:57:20.821Z,23.6
2019-02-26T10:58:16.311Z,23.6
2019-02-26T10:58:45.617Z,23.6
2019-02-26T10:59:36.493Z,23.6
2019-02-26T11:00:42.072Z,23.7
2019-02-26T11:01:30.251Z,23.7
2019-02-26T11:02:09.991Z,23.6
2019-02-26T11:03:01.759Z,23.6
2019-02-26T11:04:00.722Z,23.6
2019-02-26T11:05:00.918Z,23.6
2019-02-26T11:05:34.022Z,23.6
2019-02-26T11:06:26.087Z,23.6
2019-02-26T11:07:20.665Z,23.5
2019-02-26T11:08:14.186Z,23.4
2019-02-26T11:09:01.724Z,23.3
2019-02-26T11:09:39.354Z,23.3
2019-02-26T11:10:32.579Z,23.3
2019-02-26T11:11:25.630Z,23.2
2019-02-26T11:12:15.586Z,23.2
2019-02-26T11:13:06.262Z,23.2
2019-02-26T11:14:00.104Z,23.2
2019-02-26T11:14:50.085Z,23.3
2019-02-26T11:15:42.093Z,23.3
2019-02-26T11:16:41.996Z,23.3
2019-02-26T11:17:07.130Z,23.3
2019-02-26T11:18:02.844Z,23.4
2019-02-26T11:18:54.010Z,23.4
2019-02-26T11:19:48.722Z,23.4
2019-02-26T11:20:40.149Z,23.5
2019-02-26T11:21:17.228Z,23.5